createdAt,value
2022-07-29T00:01:26.164Z,1.10
2022-07-29T00:03:55.725Z,0.90
2022-07-29T00:06:23.897Z,0.80
2022-07-29T00:08:52.067Z,1.20
2022-07-29T00:11:21.528Z,1.20
2022-07-29T00:13:51.122Z,1.30
2022-07-29T00:16:19.445Z,0.80
2022-07-29T00:18:47.631Z,0.70
2022-07-29T00:21:15.752Z,1.60
2022-07-29T00:23:44.022Z,1.08
2022-07-29T00:26:12.244Z,1.02
2022-07-29T00:28:41.704Z,1.15
2022-07-29T00:31:10.079Z,1.00
2022-07-29T00:33:38.323Z,1.08
2022-07-29T00:36:06.083Z,1.23
2022-07-29T00:38:34.195Z,0.93
2022-07-29T00:41:02.348Z,0.85
2022-07-29T00:43:30.730Z,0.80
2022-07-29T00:46:00.256Z,1.00
2022-07-29T00:48:28.435Z,0.95
2022-07-29T00:50:58.080Z,1.00
2022-07-29T00:53:27.599Z,1.02
2022-07-29T00:55:56.802Z,1.35
2022-07-29T00:58:25.381Z,1.45
2022-07-29T01:00:54.097Z,1.10
2022-07-29T01:03:23.632Z,0.80
2022-07-29T01:05:52.164Z,0.80
2022-07-29T01:08:22.317Z,0.98
2022-07-29T01:10:51.275Z,1.00
2022-07-29T01:13:19.953Z,1.10
2022-07-29T01:15:53.946Z,1.10
2022-07-29T01:18:31.680Z,0.90
2022-07-29T01:21:29.993Z,0.82
2022-07-29T01:24:35.811Z,0.85
2022-07-29T01:27:16.358Z,0.90
2022-07-29T01:29:54.975Z,0.98
2022-07-29T01:32:29.596Z,1.05
2022-07-29T01:35:04.259Z,1.10
2022-07-29T01:37:38.494Z,1.08
2022-07-29T01:40:10.590Z,0.90
2022-07-29T01:42:44.160Z,0.80
2022-07-29T01:45:17.487Z,1.13
2022-07-29T01:47:56.454Z,0.80
2022-07-29T01:50:32.303Z,1.00
2022-07-29T01:53:07.124Z,0.80
2022-07-29T01:55:41.199Z,0.80
2022-07-29T01:58:11.002Z,1.00
2022-07-29T02:00:43.870Z,0.90
2022-07-29T02:03:14.088Z,0.90
2022-07-29T02:05:54.939Z,1.45
2022-07-29T02:08:25.295Z,0.77
2022-07-29T02:10:54.740Z,1.10
2022-07-29T02:13:24.405Z,0.90
2022-07-29T02:15:55.959Z,1.10
2022-07-29T02:18:27.258Z,1.25
2022-07-29T02:20:58.823Z,1.13
2022-07-29T02:23:28.212Z,1.02
2022-07-29T02:25:59.361Z,1.13
2022-07-29T02:28:30.541Z,1.73
2022-07-29T02:31:04.892Z,1.30
2022-07-29T02:33:34.386Z,1.50
2022-07-29T02:36:03.854Z,1.33
2022-07-29T02:38:51.099Z,1.20
2022-07-29T02:41:24.970Z,1.63
2022-07-29T02:44:10.404Z,1.10
2022-07-29T02:46:45.685Z,1.23
2022-07-29T02:49:20.301Z,1.00
2022-07-29T02:51:54.969Z,1.50
2022-07-29T02:54:28.232Z,1.40
2022-07-29T02:59:29.776Z,1.50
2022-07-29T03:02:01.163Z,1.40
2022-07-29T03:04:31.096Z,1.55
2022-07-29T03:07:02.649Z,1.27
2022-07-29T03:09:32.649Z,1.40
2022-07-29T03:12:01.789Z,1.70
2022-07-29T03:14:30.604Z,1.85
2022-07-29T03:17:01.594Z,1.60
2022-07-29T03:19:29.896Z,1.60
2022-07-29T03:21:58.891Z,1.73
2022-07-29T03:24:28.943Z,1.30
2022-07-29T03:26:57.682Z,1.98
2022-07-29T03:29:33.039Z,1.60
2022-07-29T03:32:07.232Z,1.48
2022-07-29T03:34:48.430Z,1.63
2022-07-29T03:37:16.508Z,1.50
2022-07-29T03:39:46.274Z,1.70
2022-07-29T03:42:17.356Z,1.90
2022-07-29T03:44:49.562Z,1.23
2022-07-29T03:47:23.269Z,1.58
2022-07-29T03:50:14.168Z,1.70
2022-07-29T03:52:43.026Z,1.27
2022-07-29T03:55:14.006Z,1.48
2022-07-29T03:57:44.064Z,1.60
2022-07-29T04:00:13.174Z,1.60
2022-07-29T04:02:46.005Z,1.52
2022-07-29T04:05:14.932Z,1.63
2022-07-29T04:07:45.245Z,1.52
2022-07-29T04:10:13.412Z,1.70
2022-07-29T04:12:41.625Z,1.55
2022-07-29T04:15:10.767Z,1.52
2022-07-29T04:17:39.118Z,1.40
2022-07-29T04:20:10.039Z,1.63
2022-07-29T04:22:38.166Z,1.42
2022-07-29T04:25:06.915Z,1.30
2022-07-29T04:27:35.124Z,1.23
2022-07-29T04:30:03.230Z,1.50
2022-07-29T04:32:31.352Z,1.50
2022-07-29T04:34:59.447Z,2.00
2022-07-29T04:37:28.999Z,1.50
2022-07-29T04:39:57.089Z,1.17
2022-07-29T04:42:27.718Z,1.42
2022-07-29T04:44:57.673Z,1.80
2022-07-29T04:47:31.527Z,2.20
2022-07-29T04:49:59.925Z,2.25
2022-07-29T04:52:29.404Z,1.48
2022-07-29T04:54:57.534Z,1.63
2022-07-29T04:57:25.640Z,2.13
2022-07-29T04:59:53.810Z,1.90
2022-07-29T05:02:22.910Z,2.08
2022-07-29T05:04:51.175Z,2.10
2022-07-29T05:07:19.455Z,1.90
2022-07-29T05:09:48.936Z,1.80
2022-07-29T05:12:17.166Z,1.70
2022-07-29T05:14:45.268Z,2.00
2022-07-29T05:17:13.650Z,1.80
2022-07-29T05:19:41.766Z,1.55
2022-07-29T05:22:09.877Z,1.85
2022-07-29T05:24:38.315Z,1.85
2022-07-29T05:27:07.922Z,1.30
2022-07-29T05:29:44.127Z,1.55
2022-07-29T05:32:14.295Z,1.65
2022-07-29T05:34:50.049Z,2.10
2022-07-29T05:37:20.013Z,1.48
2022-07-29T05:39:56.412Z,1.70
2022-07-29T05:42:27.226Z,2.15
2022-07-29T05:44:55.579Z,1.70
2022-07-29T05:47:24.230Z,1.80
2022-07-29T05:49:52.661Z,2.10
2022-07-29T05:52:21.056Z,1.83
2022-07-29T05:54:49.345Z,1.38
2022-07-29T05:57:18.851Z,1.60
2022-07-29T05:59:48.430Z,2.20
2022-07-29T06:02:17.310Z,1.40
2022-07-29T06:04:46.001Z,1.63
2022-07-29T06:07:14.250Z,1.70
2022-07-29T06:09:42.367Z,1.67
2022-07-29T06:12:11.223Z,1.75
2022-07-29T06:14:39.791Z,1.40
2022-07-29T06:17:09.354Z,1.60
2022-07-29T06:19:37.777Z,2.08
2022-07-29T06:22:06.535Z,1.67
2022-07-29T06:24:34.753Z,2.50
2022-07-29T06:27:02.873Z,1.80
2022-07-29T06:29:31.772Z,1.80
2022-07-29T06:31:59.859Z,1.63
2022-07-29T06:34:29.415Z,1.55
2022-07-29T06:36:57.510Z,1.90
2022-07-29T06:39:25.598Z,1.77
2022-07-29T06:41:54.985Z,1.70
2022-07-29T06:44:23.150Z,2.00
2022-07-29T06:46:52.601Z,1.50
2022-07-29T06:49:20.795Z,1.75
2022-07-29T06:51:50.353Z,1.83
2022-07-29T06:54:18.640Z,1.70
2022-07-29T06:56:47.714Z,1.73
2022-07-29T06:59:15.862Z,3.45
2022-07-29T07:01:45.724Z,1.80
2022-07-29T07:04:14.585Z,1.50
2022-07-29T07:06:43.296Z,2.08
2022-07-29T07:09:12.781Z,1.70
2022-07-29T07:11:40.901Z,1.90
2022-07-29T07:14:09.016Z,1.90
2022-07-29T07:16:37.232Z,1.50
2022-07-29T07:19:05.522Z,2.28
2022-07-29T07:21:35.258Z,1.70
2022-07-29T07:24:04.379Z,1.40
2022-07-29T07:26:34.082Z,1.77
2022-07-29T07:29:02.469Z,1.80
2022-07-29T07:31:30.736Z,1.73
2022-07-29T07:33:59.149Z,1.50
2022-07-29T07:36:27.358Z,1.25
2022-07-29T07:38:55.671Z,1.50
2022-07-29T07:41:24.095Z,1.30
2022-07-29T07:43:53.580Z,1.50
2022-07-29T07:46:21.725Z,1.70
2022-07-29T07:48:50.003Z,1.90
2022-07-29T07:51:18.161Z,1.40
2022-07-29T07:53:50.422Z,1.42
2022-07-29T07:56:18.773Z,1.70
2022-07-29T07:58:46.869Z,1.55
2022-07-29T08:01:19.936Z,1.80
2022-07-29T08:03:48.259Z,1.65
2022-07-29T08:06:16.390Z,1.50
2022-07-29T08:08:44.505Z,1.70
2022-07-29T08:11:12.979Z,1.50
2022-07-29T08:13:41.331Z,1.85
2022-07-29T08:16:16.306Z,1.70
2022-07-29T08:18:47.500Z,1.50
2022-07-29T08:21:16.499Z,1.27
2022-07-29T08:23:59.637Z,1.48
2022-07-29T08:26:29.197Z,2.08
2022-07-29T08:28:57.324Z,1.40
2022-07-29T08:31:25.644Z,1.63
2022-07-29T08:33:57.073Z,1.65
2022-07-29T08:36:25.894Z,1.42
2022-07-29T08:38:54.074Z,1.35
2022-07-29T08:41:22.428Z,1.45
2022-07-29T08:43:51.993Z,1.23
2022-07-29T08:46:20.820Z,1.30
2022-07-29T08:48:49.559Z,2.28
2022-07-29T08:51:21.174Z,1.60
2022-07-29T08:53:51.646Z,1.10
2022-07-29T08:56:21.383Z,1.42
2022-07-29T08:58:51.769Z,1.17
2022-07-29T09:01:35.667Z,1.10
2022-07-29T09:04:08.005Z,1.60
2022-07-29T09:06:41.400Z,1.45
2022-07-29T09:09:10.514Z,1.70
2022-07-29T09:11:38.941Z,1.50
2022-07-29T09:14:07.105Z,5.07
2022-07-29T09:16:55.982Z,1.48
2022-07-29T09:19:26.630Z,1.80
2022-07-29T09:22:00.025Z,1.40
2022-07-29T09:24:37.777Z,1.50
2022-07-29T09:27:11.472Z,1.15
2022-07-29T09:29:40.080Z,1.10
2022-07-29T09:32:11.559Z,1.10
2022-07-29T09:34:39.987Z,1.20
2022-07-29T09:37:09.669Z,1.63
2022-07-29T09:39:46.429Z,1.50
2022-07-29T09:42:16.701Z,1.75
2022-07-29T09:44:46.985Z,1.35
2022-07-29T09:47:15.189Z,1.42
2022-07-29T09:49:55.131Z,1.13
2022-07-29T09:52:24.580Z,1.17
2022-07-29T09:54:54.948Z,1.13
2022-07-29T09:57:30.812Z,1.65
2022-07-29T10:00:01.184Z,1.30
2022-07-29T10:02:33.674Z,1.33
2022-07-29T10:07:50.488Z,1.13
2022-07-29T10:10:24.085Z,1.55
2022-07-29T10:12:55.035Z,1.50
2022-07-29T10:15:25.065Z,1.30
2022-07-29T10:17:54.021Z,1.33
2022-07-29T10:20:22.978Z,1.42
2022-07-29T10:22:54.433Z,1.48
2022-07-29T10:25:23.422Z,1.60
2022-07-29T10:27:53.204Z,1.27
2022-07-29T10:30:22.632Z,1.27
2022-07-29T10:33:22.400Z,1.73
2022-07-29T10:36:10.039Z,1.35
2022-07-29T10:38:57.702Z,1.17
2022-07-29T10:41:47.638Z,2.70
2022-07-29T10:44:19.445Z,1.77
2022-07-29T10:46:51.977Z,1.55
2022-07-29T10:49:24.820Z,1.80
2022-07-29T10:51:59.122Z,1.35
2022-07-29T10:54:56.378Z,1.35
2022-07-29T10:57:54.128Z,1.10
2022-07-29T11:00:32.452Z,1.00
2022-07-29T11:03:04.732Z,1.30
2022-07-29T11:05:55.133Z,1.60
2022-07-29T11:08:27.991Z,1.67
2022-07-29T11:11:51.842Z,1.38
2022-07-29T11:14:57.755Z,1.40
2022-07-29T11:17:26.186Z,1.08
2022-07-29T11:20:36.543Z,1.52
2022-07-29T11:23:21.825Z,1.50
2022-07-29T11:26:26.082Z,1.20
2022-07-29T11:29:03.227Z,1.20
2022-07-29T11:31:36.626Z,1.45
2022-07-29T11:34:21.852Z,1.38
2022-07-29T11:37:18.211Z,1.25
2022-07-29T11:40:09.983Z,1.38
2022-07-29T11:42:44.540Z,1.17
2022-07-29T11:45:44.230Z,1.30
2022-07-29T11:50:52.528Z,1.20
2022-07-29T11:53:22.880Z,1.02
2022-07-29T11:55:59.642Z,1.20
2022-07-29T11:58:29.512Z,1.30
2022-07-29T12:00:58.860Z,1.40
2022-07-29T12:03:35.995Z,1.38
2022-07-29T12:06:07.375Z,1.50
2022-07-29T12:07:03.341Z,1.65
2022-07-29T12:08:43.525Z,1.42
2022-07-29T12:11:20.519Z,1.52
2022-07-29T12:13:49.433Z,1.60
2022-07-29T12:16:25.359Z,1.23
2022-07-29T12:18:59.377Z,1.50
2022-07-29T12:21:28.846Z,1.73
2022-07-29T12:24:05.866Z,1.13
2022-07-29T12:26:38.098Z,1.30
2022-07-29T12:29:14.761Z,1.48
2022-07-29T12:31:45.582Z,1.40
2022-07-29T12:34:14.822Z,1.20
2022-07-29T12:36:43.897Z,1.17
2022-07-29T12:39:13.610Z,1.40
2022-07-29T12:41:41.768Z,1.20
2022-07-29T12:44:10.024Z,1.50
2022-07-29T12:46:38.309Z,1.20
2022-07-29T12:49:07.873Z,1.20
2022-07-29T12:51:38.418Z,1.40
2022-07-29T12:54:09.374Z,1.30
2022-07-29T12:56:43.697Z,1.48
2022-07-29T12:59:17.836Z,1.50
2022-07-29T13:01:48.051Z,1.40
2022-07-29T13:04:28.103Z,1.40
2022-07-29T13:07:07.463Z,1.65
2022-07-29T13:09:40.567Z,1.30
2022-07-29T13:12:11.547Z,1.98
2022-07-29T13:14:41.139Z,1.30
2022-07-29T13:17:11.368Z,1.48
2022-07-29T13:19:41.493Z,1.75
2022-07-29T13:22:10.261Z,1.35
2022-07-29T13:24:48.307Z,1.80
2022-07-29T13:27:18.676Z,1.10
2022-07-29T13:29:47.435Z,1.50
2022-07-29T13:32:15.979Z,1.38
2022-07-29T13:34:44.055Z,1.27
2022-07-29T13:37:12.609Z,1.38
2022-07-29T13:39:41.497Z,1.20
2022-07-29T13:42:11.082Z,1.20
2022-07-29T13:44:40.711Z,1.20
2022-07-29T13:47:09.756Z,1.52
2022-07-29T13:49:37.899Z,1.63
2022-07-29T13:52:08.318Z,1.20
2022-07-29T13:54:42.128Z,1.52
2022-07-29T13:57:12.041Z,1.10
2022-07-29T13:59:42.859Z,1.35
2022-07-29T14:02:13.197Z,1.30
2022-07-29T14:04:44.049Z,1.45
2022-07-29T14:07:16.207Z,1.35
2022-07-29T14:09:44.760Z,1.38
2022-07-29T14:12:13.291Z,1.40
2022-07-29T14:14:43.007Z,1.52
2022-07-29T14:17:11.423Z,1.30
2022-07-29T14:19:39.912Z,1.40
2022-07-29T14:22:09.486Z,1.30
2022-07-29T14:24:39.579Z,1.45
2022-07-29T14:27:09.058Z,1.55
2022-07-29T14:29:38.802Z,1.50
2022-07-29T14:32:09.971Z,1.27
2022-07-29T14:34:38.538Z,1.50
2022-07-29T14:37:07.302Z,1.20
2022-07-29T14:39:42.147Z,1.45
2022-07-29T14:42:12.431Z,1.50
2022-07-29T14:44:42.248Z,1.88
2022-07-29T14:47:12.133Z,1.30
2022-07-29T14:49:40.302Z,1.38
2022-07-29T14:52:08.464Z,1.35
2022-07-29T14:54:36.558Z,1.77
2022-07-29T14:57:04.720Z,1.90
2022-07-29T14:59:32.797Z,1.50
2022-07-29T15:02:01.634Z,1.80
2022-07-29T15:04:31.440Z,1.90
2022-07-29T15:06:59.903Z,1.60
2022-07-29T15:09:28.072Z,1.40
2022-07-29T15:11:56.744Z,1.52
2022-07-29T15:14:25.080Z,1.95
2022-07-29T15:16:53.410Z,1.60
2022-07-29T15:19:21.618Z,1.50
2022-07-29T15:21:51.115Z,1.52
2022-07-29T15:24:19.594Z,1.50
2022-07-29T15:26:48.178Z,1.23
2022-07-29T15:29:16.820Z,1.65
2022-07-29T15:31:45.225Z,1.63
2022-07-29T15:34:13.360Z,1.75
2022-07-29T15:36:51.880Z,1.50
2022-07-29T15:39:22.780Z,1.50
2022-07-29T15:41:51.325Z,1.90
2022-07-29T15:44:19.750Z,1.58
2022-07-29T15:47:05.614Z,1.90
2022-07-29T15:49:47.644Z,1.65
2022-07-29T15:52:26.156Z,1.70
2022-07-29T15:54:57.595Z,2.03
2022-07-29T15:57:26.115Z,1.95
2022-07-29T15:59:54.284Z,1.70
2022-07-29T16:02:22.426Z,2.22
2022-07-29T16:04:50.610Z,1.77
2022-07-29T16:07:18.978Z,1.77
2022-07-29T16:09:51.014Z,1.80
2022-07-29T16:12:22.595Z,2.22
2022-07-29T16:14:52.054Z,1.90
2022-07-29T16:17:20.793Z,2.40
2022-07-29T16:19:49.729Z,2.30
2022-07-29T16:22:17.843Z,1.90
2022-07-29T16:24:45.940Z,2.20
2022-07-29T16:27:16.151Z,2.42
2022-07-29T16:29:46.795Z,2.38
2022-07-29T16:32:15.077Z,2.17
2022-07-29T16:34:50.534Z,2.20
2022-07-29T16:37:18.780Z,2.00
2022-07-29T16:39:46.883Z,1.83
2022-07-29T16:42:36.669Z,2.28
2022-07-29T16:45:04.994Z,1.83
2022-07-29T16:47:33.440Z,1.90
2022-07-29T16:50:02.234Z,1.30
2022-07-29T16:52:30.382Z,1.77
2022-07-29T16:54:58.544Z,1.73
2022-07-29T16:57:26.699Z,1.73
2022-07-29T16:59:54.814Z,1.80
2022-07-29T17:02:24.414Z,1.65
2022-07-29T17:04:52.554Z,1.80
2022-07-29T17:07:20.620Z,1.70
2022-07-29T17:09:52.634Z,1.55
2022-07-29T17:12:23.275Z,1.60
2022-07-29T17:14:51.476Z,1.83
2022-07-29T17:17:20.877Z,1.80
2022-07-29T17:20:10.280Z,1.80
2022-07-29T17:22:40.269Z,1.80
2022-07-29T17:25:10.012Z,1.70
2022-07-29T17:27:38.447Z,2.00
2022-07-29T17:30:08.396Z,1.95
2022-07-29T17:32:38.763Z,2.20
2022-07-29T17:35:29.724Z,2.00
2022-07-29T17:37:58.263Z,1.60
2022-07-29T17:40:26.685Z,1.70
2022-07-29T17:42:54.796Z,1.73
2022-07-29T17:45:22.956Z,1.48
2022-07-29T17:47:51.209Z,1.60
2022-07-29T17:50:20.778Z,1.60
2022-07-29T17:52:48.846Z,1.65
2022-07-29T17:55:16.973Z,1.45
2022-07-29T17:57:45.098Z,1.40
2022-07-29T18:00:13.797Z,1.63
2022-07-29T18:02:41.964Z,1.63
2022-07-29T18:05:10.404Z,1.45
2022-07-29T18:07:39.882Z,1.50
2022-07-29T18:10:08.496Z,1.10
2022-07-29T18:12:36.767Z,0.95
2022-07-29T18:15:05.845Z,1.50
2022-07-29T18:17:52.762Z,1.10
2022-07-29T18:20:22.095Z,1.02
2022-07-29T18:22:51.571Z,1.30
2022-07-29T18:25:19.896Z,1.13
2022-07-29T18:27:48.009Z,1.00
2022-07-29T18:30:16.147Z,1.00
2022-07-29T18:33:05.030Z,0.98
2022-07-29T18:35:33.764Z,1.10
2022-07-29T18:38:03.531Z,1.15
2022-07-29T18:40:32.040Z,1.00
2022-07-29T18:43:00.230Z,1.00
2022-07-29T18:45:29.005Z,0.90
2022-07-29T18:47:57.523Z,0.93
2022-07-29T18:50:29.362Z,0.77
2022-07-29T18:52:58.953Z,1.10
2022-07-29T18:55:28.768Z,0.82
2022-07-29T18:57:57.555Z,1.20
2022-07-29T19:00:27.097Z,1.08
2022-07-29T19:02:55.413Z,1.10
2022-07-29T19:05:24.121Z,0.98
2022-07-29T19:07:52.291Z,0.90
2022-07-29T19:10:20.443Z,1.00
2022-07-29T19:12:50.004Z,1.10
2022-07-29T19:15:20.083Z,1.00
2022-07-29T19:17:48.990Z,1.10
2022-07-29T19:20:17.545Z,1.00
2022-07-29T19:22:45.688Z,0.95
2022-07-29T19:25:13.880Z,1.30
2022-07-29T19:27:43.331Z,1.00
2022-07-29T19:30:13.511Z,1.00
2022-07-29T19:32:41.625Z,0.98
2022-07-29T19:35:25.378Z,1.17
2022-07-29T19:37:53.939Z,1.10
2022-07-29T19:40:22.590Z,0.95
2022-07-29T19:42:51.753Z,1.20
2022-07-29T19:45:21.743Z,1.30
2022-07-29T19:47:50.224Z,1.17
2022-07-29T19:50:18.942Z,1.23
2022-07-29T19:52:48.131Z,1.38
2022-07-29T19:55:16.614Z,1.00
2022-07-29T19:57:47.833Z,1.42
2022-07-29T20:00:16.634Z,1.30
2022-07-29T20:02:46.253Z,1.40
2022-07-29T20:05:14.431Z,1.48
2022-07-29T20:07:42.547Z,1.40
2022-07-29T20:10:11.776Z,1.73
2022-07-29T20:12:42.560Z,2.08
2022-07-29T20:15:14.786Z,1.80
2022-07-29T20:17:46.153Z,2.00
2022-07-29T20:20:14.235Z,1.88
2022-07-29T20:22:42.894Z,2.17
2022-07-29T20:25:11.962Z,2.00
2022-07-29T20:27:40.650Z,2.08
2022-07-29T20:30:13.210Z,1.80
2022-07-29T20:32:41.591Z,1.88
2022-07-29T20:35:12.128Z,2.10
2022-07-29T20:37:55.749Z,2.42
2022-07-29T20:40:25.355Z,2.33
2022-07-29T20:42:53.591Z,2.20
2022-07-29T20:45:21.864Z,1.95
2022-07-29T20:47:50.731Z,2.10
2022-07-29T20:50:24.209Z,1.92
2022-07-29T20:52:54.022Z,2.42
2022-07-29T20:55:22.468Z,1.90
2022-07-29T20:57:50.605Z,1.90
2022-07-29T21:00:19.030Z,2.20
2022-07-29T21:02:47.462Z,2.17
2022-07-29T21:05:15.894Z,2.22
2022-07-29T21:07:45.570Z,2.33
2022-07-29T21:10:14.283Z,2.40
2022-07-29T21:12:43.039Z,2.15
2022-07-29T21:15:13.509Z,2.42
2022-07-29T21:17:46.825Z,2.63
2022-07-29T21:22:43.431Z,2.38
2022-07-29T21:25:13.592Z,2.20
2022-07-29T21:27:59.252Z,2.33
2022-07-29T21:30:27.430Z,2.83
2022-07-29T21:32:55.579Z,2.95
2022-07-29T21:36:01.594Z,3.08
2022-07-29T21:38:12.164Z,2.50
2022-07-29T21:40:41.639Z,2.63
2022-07-29T21:43:09.915Z,2.88
2022-07-29T21:45:38.037Z,2.70
2022-07-29T21:48:06.711Z,2.63
2022-07-29T21:50:35.053Z,2.70
2022-07-29T21:53:03.528Z,2.20
2022-07-29T21:55:33.077Z,2.30
2022-07-29T21:58:03.807Z,2.45
2022-07-29T22:00:33.839Z,2.33
2022-07-29T22:03:02.787Z,2.60
2022-07-29T22:05:31.704Z,2.70
2022-07-29T22:08:00.307Z,2.80
2022-07-29T22:10:30.573Z,2.30
2022-07-29T22:13:01.655Z,2.55
2022-07-29T22:15:31.338Z,2.60
2022-07-29T22:17:59.916Z,2.42
2022-07-29T22:20:28.219Z,2.45
2022-07-29T22:22:56.347Z,2.40
2022-07-29T22:25:24.518Z,2.42
2022-07-29T22:28:05.347Z,2.47
2022-07-29T22:30:34.858Z,2.80
2022-07-29T22:33:03.058Z,2.65
2022-07-29T22:35:31.193Z,2.75
2022-07-29T22:37:59.299Z,2.55
2022-07-29T22:40:30.735Z,2.40
2022-07-29T22:43:00.819Z,2.80
2022-07-29T22:45:29.142Z,2.65
2022-07-29T22:47:59.074Z,3.00
2022-07-29T22:50:27.799Z,2.55
2022-07-29T22:52:55.897Z,2.28
2022-07-29T22:55:24.164Z,2.28
2022-07-29T22:57:52.507Z,2.10
2022-07-29T23:00:20.624Z,1.90
2022-07-29T23:02:49.026Z,1.83
2022-07-29T23:05:26.129Z,2.13
2022-07-29T23:07:54.258Z,2.00
2022-07-29T23:10:22.862Z,2.42
2022-07-29T23:12:51.155Z,2.10
2022-07-29T23:15:19.374Z,2.03
2022-07-29T23:17:47.917Z,2.08
2022-07-29T23:20:15.989Z,2.25
2022-07-29T23:22:45.561Z,2.15
2022-07-29T23:25:13.652Z,2.25
2022-07-29T23:27:42.150Z,2.10
2022-07-29T23:30:11.672Z,2.40
2022-07-29T23:32:39.759Z,2.00
2022-07-29T23:35:09.562Z,2.03
2022-07-29T23:37:37.841Z,1.95
2022-07-29T23:40:13.662Z,1.75
2022-07-29T23:42:43.320Z,1.80
2022-07-29T23:45:12.471Z,2.00
2022-07-29T23:47:40.973Z,2.28
2022-07-29T23:50:11.999Z,1.88
2022-07-29T23:52:40.414Z,1.92
2022-07-29T23:55:37.879Z,2.08
2022-07-29T23:57:59.909Z,1.95
